createdAt,value
2024-04-21T00:01:15.722Z,102166.50
2024-04-21T00:03:37.663Z,102166.50
2024-04-21T00:05:59.525Z,102165.97
2024-04-21T00:08:21.372Z,102170.59
2024-04-21T00:10:43.209Z,102154.47
2024-04-21T00:13:05.101Z,102162.13
2024-04-21T00:15:26.925Z,102162.13
2024-04-21T00:17:48.878Z,102162.94
2024-04-21T00:20:10.748Z,102156.91
2024-04-21T00:22:32.699Z,102159.63
2024-04-21T00:24:54.496Z,102152.81
2024-04-21T00:27:16.378Z,102163.75
2024-04-21T00:29:38.231Z,102172.25
2024-04-21T00:32:00.037Z,102167.59
2024-04-21T00:34:21.993Z,102182.06
2024-04-21T00:36:43.917Z,102180.16
2024-04-21T00:39:06.066Z,102171.38
2024-04-21T00:41:27.894Z,102163.72
2024-04-21T00:43:49.714Z,102168.66
2024-04-21T00:46:12.812Z,102156.34
2024-04-21T00:48:35.745Z,102151.41
2024-04-21T00:50:58.066Z,102149.78
2024-04-21T00:53:23.634Z,102154.41
2024-04-21T00:55:46.078Z,102144.31
2024-04-21T00:58:09.106Z,102144.31
2024-04-21T01:00:31.444Z,102133.38
2024-04-21T01:02:53.417Z,102131.72
2024-04-21T01:05:15.332Z,102127.91
2024-04-21T01:07:38.635Z,102126.00
2024-04-21T01:10:00.608Z,102121.59
2024-04-21T01:12:22.608Z,102121.31
2024-04-21T01:14:44.478Z,102122.44
2024-04-21T01:17:06.420Z,102113.94
2024-04-21T01:19:28.249Z,102117.75
2024-04-21T01:21:50.114Z,102116.66
2024-04-21T01:24:11.994Z,102114.72
2024-04-21T01:26:34.540Z,102122.09
2024-04-21T01:28:56.637Z,102108.41
2024-04-21T01:31:18.596Z,102102.13
2024-04-21T01:33:40.473Z,102106.22
2024-04-21T01:36:02.332Z,102102.38
2024-04-21T01:38:24.446Z,102097.72
2024-04-21T01:40:46.353Z,102098.81
2024-04-21T01:43:08.219Z,102116.28
2024-04-21T01:45:30.108Z,102098.81
2024-04-21T01:47:52.186Z,102096.09
2024-04-21T01:50:14.037Z,102098.28
2024-04-21T01:52:35.905Z,102099.91
2024-04-21T01:54:57.722Z,102094.44
2024-04-21T01:57:19.521Z,102102.13
2024-04-21T01:59:41.371Z,102086.53
2024-04-21T02:02:03.348Z,102069.59
2024-04-21T02:04:25.366Z,102068.22
2024-04-21T02:06:47.330Z,102071.19
2024-04-21T02:09:09.173Z,102068.44
2024-04-21T02:11:31.114Z,102063.22
2024-04-21T02:13:52.964Z,102056.69
2024-04-21T02:16:14.915Z,102055.31
2024-04-21T02:18:37.001Z,102050.91
2024-04-21T02:20:58.814Z,102048.75
2024-04-21T02:23:20.690Z,102056.13
2024-04-21T02:25:43.188Z,102047.13
2024-04-21T02:28:05.343Z,102038.63
2024-04-21T02:30:27.246Z,102034.00
2024-04-21T02:32:49.157Z,102029.59
2024-04-21T02:35:10.963Z,102024.69
2024-04-21T02:37:32.768Z,102026.28
2024-04-21T02:39:54.614Z,102014.81
2024-04-21T02:42:16.502Z,102011.81
2024-04-21T02:44:38.366Z,102013.97
2024-04-21T02:47:00.325Z,101999.22
2024-04-21T02:49:22.721Z,101998.69
2024-04-21T02:51:44.560Z,101999.22
2024-04-21T02:54:06.468Z,101995.69
2024-04-21T02:56:28.278Z,101998.16
2024-04-21T02:58:50.077Z,101994.06
2024-04-21T03:01:12.298Z,101988.59
2024-04-21T03:03:34.218Z,101996.53
2024-04-21T03:05:59.788Z,101986.97
2024-04-21T03:08:21.590Z,101984.50
2024-04-21T03:10:46.354Z,101980.13
2024-04-21T03:13:08.177Z,101976.31
2024-04-21T03:15:31.019Z,101969.22
2024-04-21T03:17:53.230Z,101965.94
2024-04-21T03:20:15.164Z,101960.75
2024-04-21T03:22:37.148Z,101957.75
2024-04-21T03:24:59.111Z,101949.53
2024-04-21T03:27:20.923Z,101948.72
2024-04-21T03:29:42.829Z,101944.09
2024-04-21T03:32:05.081Z,101943.28
2024-04-21T03:34:27.654Z,101940.00
2024-04-21T03:36:49.890Z,101937.81
2024-04-21T03:39:11.773Z,101944.34
2024-04-21T03:41:33.656Z,101942.47
2024-04-21T03:43:57.550Z,101942.47
2024-04-21T03:46:22.141Z,101934.28
2024-04-21T03:48:45.920Z,101943.28
2024-04-21T03:51:07.926Z,101937.28
2024-04-21T03:53:29.798Z,101940.00
2024-04-21T03:55:51.705Z,101935.66
2024-04-21T03:58:13.783Z,101935.66
2024-04-21T04:00:35.646Z,101934.84
2024-04-21T04:02:57.573Z,101934.53
2024-04-21T04:05:19.443Z,101927.44
2024-04-21T04:07:41.297Z,101928.53
2024-04-21T04:10:03.243Z,101918.44
2024-04-21T04:12:25.161Z,101926.34
2024-04-21T04:14:47.015Z,101918.69
2024-04-21T04:17:08.855Z,101920.88
2024-04-21T04:19:30.861Z,101912.94
2024-04-21T04:21:52.986Z,101917.03
2024-04-21T04:24:14.850Z,101908.84
2024-04-21T04:26:36.880Z,101918.41
2024-04-21T04:28:58.732Z,101920.88
2024-04-21T04:31:20.674Z,101917.59
2024-04-21T04:33:42.758Z,101917.34
2024-04-21T04:36:05.398Z,101923.91
2024-04-21T04:38:27.245Z,101920.88
2024-04-21T04:40:49.048Z,101931.00
2024-04-21T04:43:10.987Z,101930.44
2024-04-21T04:45:32.850Z,101930.44
2024-04-21T04:47:54.698Z,101935.38
2024-04-21T04:50:16.984Z,101942.75
2024-04-21T04:52:38.765Z,101937.28
2024-04-21T04:55:02.875Z,101933.47
2024-04-21T04:57:24.658Z,101940.84
2024-04-21T04:59:46.539Z,101948.50
2024-04-21T05:02:08.437Z,101949.59
2024-04-21T05:04:30.508Z,101952.31
2024-04-21T05:06:52.481Z,101958.63
2024-04-21T05:09:14.355Z,101966.00
2024-04-21T05:11:36.249Z,101964.91
2024-04-21T05:13:58.305Z,101963.28
2024-04-21T05:16:20.258Z,101960.25
2024-04-21T05:18:42.538Z,101963.00
2024-04-21T05:21:04.776Z,101964.34
2024-04-21T05:23:26.706Z,101967.09
2024-04-21T05:25:48.537Z,101976.91
2024-04-21T05:28:10.392Z,101975.28
2024-04-21T05:30:32.259Z,101977.47
2024-04-21T05:32:54.071Z,101975.56
2024-04-21T05:35:15.983Z,101988.69
2024-04-21T05:37:37.860Z,101993.88
2024-04-21T05:39:59.704Z,101992.25
2024-04-21T05:42:21.563Z,101998.81
2024-04-21T05:44:43.521Z,102009.22
2024-04-21T05:47:05.438Z,102010.31
2024-04-21T05:49:27.366Z,102018.22
2024-04-21T05:51:50.087Z,102014.94
2024-04-21T05:54:11.895Z,102021.53
2024-04-21T05:56:33.795Z,102020.72
2024-04-21T05:58:55.883Z,102016.06
2024-04-21T06:01:17.767Z,102016.34
2024-04-21T06:03:39.743Z,102021.00
2024-04-21T06:06:01.579Z,102028.91
2024-04-21T06:08:23.403Z,102037.16
2024-04-21T06:10:46.438Z,102043.44
2024-04-21T06:13:09.438Z,102050.25
2024-04-21T06:15:31.321Z,102050.84
2024-04-21T06:17:53.286Z,102058.53
2024-04-21T06:20:15.402Z,102064.00
2024-04-21T06:22:37.198Z,102068.91
2024-04-21T06:24:59.078Z,102067.00
2024-04-21T06:27:21.927Z,102075.75
2024-04-21T06:29:43.812Z,102084.22
2024-04-21T06:32:06.110Z,102086.13
2024-04-21T06:34:28.128Z,102082.03
2024-04-21T06:36:50.014Z,102100.94
2024-04-21T06:39:12.105Z,102096.53
2024-04-21T06:41:33.908Z,102112.69
2024-04-21T06:43:55.727Z,102126.38
2024-04-21T06:46:17.699Z,102127.44
2024-04-21T06:48:39.638Z,102143.84
2024-04-21T06:51:01.588Z,102139.22
2024-04-21T06:53:23.507Z,102142.78
2024-04-21T06:55:45.366Z,102165.25
2024-04-21T06:58:07.382Z,102165.81
2024-04-21T07:00:29.274Z,102163.63
2024-04-21T07:02:51.133Z,102166.63
2024-04-21T07:05:12.957Z,102178.41
2024-04-21T07:07:34.827Z,102174.84
2024-04-21T07:09:56.649Z,102196.75
2024-04-21T07:12:18.522Z,102194.84
2024-04-21T07:14:40.372Z,102196.75
2024-04-21T07:17:02.379Z,102191.81
2024-04-21T07:19:24.499Z,102198.66
2024-04-21T07:21:46.409Z,102211.50
2024-04-21T07:24:08.387Z,102223.81
2024-04-21T07:26:30.224Z,102220.75
2024-04-21T07:28:52.105Z,102220.97
2024-04-21T07:31:13.969Z,102228.38
2024-04-21T07:33:35.995Z,102233.03
2024-04-21T07:35:57.911Z,102236.28
2024-04-21T07:38:19.864Z,102239.53
2024-04-21T07:40:41.809Z,102252.09
2024-04-21T07:43:03.845Z,102236.34
2024-04-21T07:45:25.732Z,102248.94
2024-04-21T07:47:47.672Z,102270.44
2024-04-21T07:50:09.567Z,102272.41
2024-04-21T07:52:34.060Z,102275.22
2024-04-21T07:54:56.018Z,102270.59
2024-04-21T07:57:17.897Z,102277.47
2024-04-21T07:59:39.738Z,102289.88
2024-04-21T08:02:01.715Z,102292.06
2024-04-21T08:04:23.714Z,102294.25
2024-04-21T08:06:45.567Z,102287.38
2024-04-21T08:09:16.644Z,102300.81
2024-04-21T08:11:48.400Z,102301.06
2024-04-21T08:14:10.324Z,102306.00
2024-04-21T08:16:34.511Z,102306.00
2024-04-21T08:18:57.323Z,102307.88
2024-04-21T08:21:19.195Z,102315.47
2024-04-21T08:23:41.015Z,102315.72
2024-04-21T08:26:04.554Z,102320.41
2024-04-21T08:28:26.552Z,102317.69
2024-04-21T08:30:48.445Z,102319.31
2024-04-21T08:33:10.355Z,102328.66
2024-04-21T08:35:32.460Z,102335.47
2024-04-21T08:37:54.280Z,102329.97
2024-04-21T08:40:16.308Z,102330.19
2024-04-21T08:42:38.185Z,102340.91
2024-04-21T08:45:00.307Z,102353.59
2024-04-21T08:47:22.199Z,102339.88
2024-04-21T08:49:45.449Z,102337.72
2024-04-21T08:52:10.521Z,102359.16
2024-04-21T08:54:32.498Z,102348.22
2024-04-21T08:56:57.519Z,102351.22
2024-04-21T08:59:25.775Z,102357.25
2024-04-21T09:01:49.850Z,102354.97
2024-04-21T09:04:13.275Z,102363.31
2024-04-21T09:06:39.422Z,102358.59
2024-04-21T09:09:01.272Z,102362.97
2024-04-21T09:11:26.890Z,102366.66
2024-04-21T09:13:49.962Z,102369.56
2024-04-21T09:16:12.169Z,102380.38
2024-04-21T09:18:34.165Z,102378.50
2024-04-21T09:20:56.147Z,102385.41
2024-04-21T09:23:18.094Z,102384.78
2024-04-21T09:25:39.981Z,102393.13
2024-04-21T09:28:01.796Z,102388.44
2024-04-21T09:30:23.651Z,102390.16
2024-04-21T09:32:46.714Z,102390.00
2024-04-21T09:35:08.581Z,102388.81
2024-04-21T09:37:30.682Z,102392.25
2024-04-21T09:39:52.729Z,102385.06
2024-04-21T09:42:19.891Z,102391.09
2024-04-21T09:44:44.463Z,102391.53
2024-04-21T09:47:08.276Z,102391.84
2024-04-21T09:49:33.204Z,102396.97
2024-04-21T09:51:56.805Z,102394.41
2024-04-21T09:54:21.197Z,102399.22
2024-04-21T09:56:52.996Z,102402.63
2024-04-21T09:59:22.939Z,102409.97
2024-04-21T10:01:46.752Z,102417.47
2024-04-21T10:04:20.176Z,102406.66
2024-04-21T10:06:45.333Z,102407.41
2024-04-21T10:09:07.806Z,102417.69
2024-04-21T10:11:29.763Z,102405.19
2024-04-21T10:13:53.516Z,102407.41
2024-04-21T10:16:16.070Z,102408.16
2024-04-21T10:18:38.100Z,102406.72
2024-04-21T10:21:00.917Z,102406.91
2024-04-21T10:23:22.825Z,102405.78
2024-04-21T10:25:46.158Z,102410.78
2024-04-21T10:28:14.429Z,102404.97
2024-04-21T10:30:37.648Z,102395.09
2024-04-21T10:33:01.527Z,102408.00
2024-04-21T10:35:24.328Z,102406.28
2024-04-21T10:37:46.668Z,102403.84
2024-04-21T10:40:09.327Z,102412.00
2024-04-21T10:42:36.686Z,102432.31
2024-04-21T10:44:58.776Z,102416.84
2024-04-21T10:47:20.664Z,102427.16
2024-04-21T10:49:42.663Z,102422.81
2024-04-21T10:52:06.119Z,102424.53
2024-04-21T10:54:28.343Z,102423.84
2024-04-21T10:56:50.921Z,102429.53
2024-04-21T10:59:13.038Z,102424.97
2024-04-21T11:01:35.067Z,102443.84
2024-04-21T11:03:57.087Z,102429.13
2024-04-21T11:06:20.348Z,102432.41
2024-04-21T11:08:42.839Z,102425.03
2024-04-21T11:11:05.049Z,102424.25
2024-04-21T11:13:27.146Z,102417.47
2024-04-21T11:15:49.015Z,102423.41
2024-04-21T11:18:11.659Z,102421.50
2024-04-21T11:20:33.993Z,102424.13
2024-04-21T11:22:55.947Z,102422.47
2024-04-21T11:25:19.416Z,102425.47
2024-04-21T11:27:41.281Z,102424.34
2024-04-21T11:30:03.699Z,102431.56
2024-04-21T11:32:26.794Z,102432.41
2024-04-21T11:34:49.339Z,102430.13
2024-04-21T11:37:23.965Z,102427.69
2024-04-21T11:39:45.950Z,102425.47
2024-04-21T11:42:10.613Z,102425.84
2024-04-21T11:44:32.418Z,102424.16
2024-04-21T11:46:58.899Z,102422.19
2024-04-21T11:49:20.792Z,102426.69
2024-04-21T11:51:42.607Z,102430.97
2024-04-21T11:54:05.039Z,102423.63
2024-04-21T11:56:27.359Z,102426.09
2024-04-21T11:58:49.220Z,102425.06
2024-04-21T12:01:11.414Z,102417.59
2024-04-21T12:03:34.316Z,102415.97
2024-04-21T12:05:56.228Z,102416.28
2024-04-21T12:08:18.135Z,102429.72
2024-04-21T12:10:40.616Z,102422.69
2024-04-21T12:13:02.565Z,102413.41
2024-04-21T12:15:25.600Z,102426.09
2024-04-21T12:17:47.646Z,102418.03
2024-04-21T12:20:10.140Z,102424.75
2024-04-21T12:22:32.038Z,102419.31
2024-04-21T12:24:54.084Z,102430.81
2024-04-21T12:27:16.735Z,102421.34
2024-04-21T12:29:38.581Z,102423.19
2024-04-21T12:32:00.591Z,102431.69
2024-04-21T12:34:22.536Z,102426.91
2024-04-21T12:36:44.509Z,102430.69
2024-04-21T12:39:06.305Z,102423.41
2024-04-21T12:41:28.228Z,102420.16
2024-04-21T12:43:50.132Z,102417.47
2024-04-21T12:46:12.081Z,102419.88
2024-04-21T12:48:34.015Z,102415.66
2024-04-21T12:50:56.581Z,102413.06
2024-04-21T12:53:20.148Z,102413.34
2024-04-21T12:55:42.589Z,102420.28
2024-04-21T12:58:04.791Z,102419.31
2024-04-21T13:00:26.826Z,102416.25
2024-04-21T13:02:49.244Z,102413.78
2024-04-21T13:05:11.258Z,102407.28
2024-04-21T13:07:33.181Z,102407.03
2024-04-21T13:09:55.200Z,102406.78
2024-04-21T13:12:20.150Z,102402.34
2024-04-21T13:14:42.072Z,102404.44
2024-04-21T13:17:04.166Z,102413.31
2024-04-21T13:19:26.119Z,102408.63
2024-04-21T13:21:48.370Z,102416.09
2024-04-21T13:24:10.394Z,102406.94
2024-04-21T13:26:33.447Z,102398.75
2024-04-21T13:28:55.389Z,102400.81
2024-04-21T13:31:18.119Z,102390.59
2024-04-21T13:33:39.987Z,102392.53
2024-04-21T13:36:01.916Z,102387.88
2024-04-21T13:38:24.093Z,102398.13
2024-04-21T13:40:46.040Z,102396.06
2024-04-21T13:43:07.979Z,102394.75
2024-04-21T13:45:29.837Z,102394.41
2024-04-21T13:47:51.753Z,102397.91
2024-04-21T13:50:13.729Z,102398.84
2024-04-21T13:52:35.648Z,102393.84
2024-04-21T13:54:59.607Z,102399.38
2024-04-21T13:57:23.302Z,102398.97
2024-04-21T13:59:45.542Z,102392.75
2024-04-21T14:02:16.849Z,102389.25
2024-04-21T14:05:08.304Z,102390.66
2024-04-21T14:07:30.279Z,102398.09
2024-04-21T14:09:52.105Z,102404.84
2024-04-21T14:12:13.989Z,102397.00
2024-04-21T14:14:37.051Z,102396.34
2024-04-21T14:16:59.022Z,102396.44
2024-04-21T14:19:21.022Z,102393.16
2024-04-21T14:21:42.938Z,102401.25
2024-04-21T14:24:05.409Z,102393.88
2024-04-21T14:26:27.276Z,102395.31
2024-04-21T14:28:49.146Z,102387.56
2024-04-21T14:31:12.120Z,102391.72
2024-04-21T14:33:38.534Z,102387.69
2024-04-21T14:36:01.244Z,102417.91
2024-04-21T14:38:23.475Z,102410.56
2024-04-21T14:40:52.546Z,102404.75
2024-04-21T14:43:26.150Z,102393.75
2024-04-21T14:45:51.714Z,102408.06
2024-04-21T14:48:17.436Z,102396.28
2024-04-21T14:50:43.981Z,102399.63
2024-04-21T14:53:08.286Z,102405.00
2024-04-21T14:55:43.511Z,102388.81
2024-04-21T14:58:06.483Z,102395.97
2024-04-21T15:00:29.209Z,102384.31
2024-04-21T15:02:51.813Z,102387.75
2024-04-21T15:05:14.706Z,102385.34
2024-04-21T15:07:41.218Z,102393.88
2024-04-21T15:10:06.772Z,102388.41
2024-04-21T15:12:29.391Z,102406.53
2024-04-21T15:14:52.416Z,102388.16
2024-04-21T15:17:14.987Z,102395.34
2024-04-21T15:19:38.059Z,102393.13
2024-04-21T15:22:00.671Z,102386.75
2024-04-21T15:24:23.045Z,102398.22
2024-04-21T15:26:45.475Z,102408.28
2024-04-21T15:29:08.016Z,102407.88
2024-04-21T15:31:30.546Z,102426.50
2024-04-21T15:33:53.272Z,102418.16
2024-04-21T15:36:16.091Z,102414.56
2024-04-21T15:38:38.673Z,102420.22
2024-04-21T15:41:01.349Z,102416.75
2024-04-21T15:43:24.544Z,102413.94
2024-04-21T15:45:47.142Z,102423.06
2024-04-21T15:48:09.479Z,102402.34
2024-04-21T15:50:31.908Z,102401.63
2024-04-21T15:52:55.495Z,102414.00
2024-04-21T15:55:18.067Z,102435.50
2024-04-21T15:57:40.255Z,102423.84
2024-04-21T16:00:02.297Z,102440.81
2024-04-21T16:02:28.643Z,102422.59
2024-04-21T16:04:50.706Z,102433.72
2024-04-21T16:07:14.844Z,102455.31
2024-04-21T16:09:37.287Z,102444.66
2024-04-21T16:12:00.463Z,102434.31
2024-04-21T16:14:22.741Z,102430.66
2024-04-21T16:16:45.242Z,102429.69
2024-04-21T16:19:07.935Z,102432.50
2024-04-21T16:21:29.887Z,102433.03
2024-04-21T16:23:52.011Z,102428.94
2024-04-21T16:26:14.318Z,102439.19
2024-04-21T16:28:36.768Z,102435.25
2024-04-21T16:30:59.837Z,102431.13
2024-04-21T16:33:22.522Z,102431.97
2024-04-21T16:35:45.017Z,102430.75
2024-04-21T16:38:07.580Z,102423.72
2024-04-21T16:40:32.922Z,102428.00
2024-04-21T16:42:55.515Z,102437.97
2024-04-21T16:45:19.442Z,102430.22
2024-04-21T16:47:51.114Z,102422.56
2024-04-21T16:50:15.285Z,102433.94
2024-04-21T16:52:38.301Z,102431.94
2024-04-21T16:55:01.414Z,102427.69
2024-04-21T16:57:26.196Z,102440.66
2024-04-21T16:59:48.907Z,102432.16
2024-04-21T17:02:11.740Z,102436.88
2024-04-21T17:04:36.638Z,102431.34
2024-04-21T17:07:03.101Z,102437.69
2024-04-21T17:09:25.600Z,102445.91
2024-04-21T17:11:54.014Z,102434.50
2024-04-21T17:14:16.083Z,102441.81
2024-04-21T17:16:39.741Z,102436.91
2024-04-21T17:19:01.868Z,102448.63
2024-04-21T17:21:24.238Z,102442.63
2024-04-21T17:24:14.273Z,102456.28
2024-04-21T17:26:36.290Z,102454.41
2024-04-21T17:28:59.039Z,102448.03
2024-04-21T17:31:21.246Z,102455.13
2024-04-21T17:33:43.249Z,102459.53
2024-04-21T17:36:07.196Z,102456.75
2024-04-21T17:38:29.555Z,102459.53
2024-04-21T17:40:52.012Z,102468.44
2024-04-21T17:43:14.458Z,102467.03
2024-04-21T17:45:39.429Z,102465.50
2024-04-21T17:48:02.700Z,102457.59
2024-04-21T17:50:25.237Z,102472.00
2024-04-21T17:52:47.624Z,102465.88
2024-04-21T17:55:09.922Z,102471.69
2024-04-21T17:57:32.879Z,102472.81
2024-04-21T17:59:54.830Z,102473.56
2024-04-21T18:02:17.420Z,102468.56
2024-04-21T18:04:39.414Z,102476.31
2024-04-21T18:07:01.421Z,102471.38
2024-04-21T18:09:23.399Z,102473.69
2024-04-21T18:11:45.476Z,102481.97
2024-04-21T18:14:08.133Z,102480.59
2024-04-21T18:16:30.253Z,102480.56
2024-04-21T18:18:52.154Z,102488.84
2024-04-21T18:21:14.424Z,102489.41
2024-04-21T18:23:36.612Z,102488.56
2024-04-21T18:25:58.747Z,102497.09
2024-04-21T18:28:20.745Z,102490.78
2024-04-21T18:30:42.712Z,102490.25
2024-04-21T18:33:05.294Z,102497.19
2024-04-21T18:35:27.267Z,102497.97
2024-04-21T18:37:50.019Z,102487.13
2024-04-21T18:40:12.036Z,102502.72
2024-04-21T18:42:34.483Z,102498.41
2024-04-21T18:44:58.896Z,102499.66
2024-04-21T18:47:20.973Z,102503.59
2024-04-21T18:49:43.640Z,102518.28
2024-04-21T18:52:05.813Z,102513.94
2024-04-21T18:54:27.658Z,102514.84
2024-04-21T18:56:49.636Z,102520.19
2024-04-21T18:59:12.075Z,102517.19
2024-04-21T19:01:34.175Z,102527.72
2024-04-21T19:03:56.387Z,102526.69
2024-04-21T19:06:22.178Z,102526.19
2024-04-21T19:08:44.511Z,102535.28
2024-04-21T19:11:07.131Z,102533.41
2024-04-21T19:13:30.251Z,102530.69
2024-04-21T19:15:58.196Z,102538.66
2024-04-21T19:18:20.605Z,102539.00
2024-04-21T19:20:44.726Z,102542.84
2024-04-21T19:23:10.254Z,102550.31
2024-04-21T19:25:32.434Z,102556.66
2024-04-21T19:27:54.508Z,102555.56
2024-04-21T19:30:16.602Z,102553.13
2024-04-21T19:32:39.069Z,102554.22
2024-04-21T19:35:01.596Z,102558.91
2024-04-21T19:37:23.603Z,102558.91
2024-04-21T19:39:45.853Z,102563.88
2024-04-21T19:42:08.275Z,102561.94
2024-04-21T19:44:30.827Z,102567.19
2024-04-21T19:46:53.996Z,102564.47
2024-04-21T19:49:17.185Z,102569.09
2024-04-21T19:51:39.141Z,102566.09
2024-04-21T19:54:02.694Z,102567.50
2024-04-21T19:56:26.253Z,102568.59
2024-04-21T19:58:48.308Z,102571.66
2024-04-21T20:01:10.437Z,102576.59
2024-04-21T20:03:32.549Z,102574.41
2024-04-21T20:05:54.567Z,102579.63
2024-04-21T20:08:17.711Z,102573.59
2024-04-21T20:10:40.005Z,102584.84
2024-04-21T20:13:02.162Z,102578.78
2024-04-21T20:15:43.385Z,102577.94
2024-04-21T20:18:24.636Z,102582.63
2024-04-21T20:20:46.671Z,102571.34
2024-04-21T20:23:09.739Z,102573.84
2024-04-21T20:25:37.717Z,102579.34
2024-04-21T20:27:59.864Z,102581.25
2024-04-21T20:30:22.051Z,102579.34
2024-04-21T20:32:44.255Z,102587.84
2024-04-21T20:35:06.740Z,102587.03
2024-04-21T20:37:29.150Z,102584.84
2024-04-21T20:39:51.331Z,102589.47
2024-04-21T20:42:13.464Z,102594.44
2024-04-21T20:44:36.342Z,102597.44
2024-04-21T20:46:58.356Z,102596.88
2024-04-21T20:49:21.409Z,102596.88
2024-04-21T20:51:43.843Z,102589.22
2024-04-21T20:54:05.989Z,102598.25
2024-04-21T20:56:28.999Z,102600.75
2024-04-21T20:58:53.059Z,102600.75
2024-04-21T21:01:16.023Z,102597.19
2024-04-21T21:03:38.089Z,102599.06
2024-04-21T21:06:00.817Z,102604.31
2024-04-21T21:08:22.958Z,102605.41
2024-04-21T21:10:45.192Z,102604.03
2024-04-21T21:13:08.710Z,102616.66
2024-04-21T21:15:33.313Z,102611.16
2024-04-21T21:17:55.473Z,102612.53
2024-04-21T21:20:17.522Z,102619.16
2024-04-21T21:22:39.899Z,102618.28
2024-04-21T21:25:02.326Z,102626.81
2024-04-21T21:27:24.334Z,102624.91
2024-04-21T21:29:46.342Z,102619.41
2024-04-21T21:32:08.290Z,102626.28
2024-04-21T21:34:30.317Z,102621.91
2024-04-21T21:36:52.162Z,102626.81
2024-04-21T21:39:14.097Z,102620.53
2024-04-21T21:41:35.981Z,102626.00
2024-04-21T21:43:57.902Z,102623.78
2024-04-21T21:46:19.810Z,102623.25
2024-04-21T21:48:42.879Z,102614.47
2024-04-21T21:51:05.292Z,102617.22
2024-04-21T21:53:27.267Z,102620.22
2024-04-21T21:55:49.170Z,102614.16
2024-04-21T21:58:11.241Z,102615.28
2024-04-21T22:00:33.546Z,102613.63
2024-04-21T22:02:55.707Z,102619.09
2024-04-21T22:05:17.794Z,102612.78
2024-04-21T22:07:39.650Z,102621.59
2024-04-21T22:10:01.508Z,102613.91
2024-04-21T22:12:23.732Z,102618.84
2024-04-21T22:14:45.569Z,102618.28
2024-04-21T22:17:07.413Z,102615.00
2024-04-21T22:19:29.379Z,102621.03
2024-04-21T22:21:51.177Z,102621.31
2024-04-21T22:24:12.973Z,102620.47
2024-04-21T22:26:35.240Z,102614.72
2024-04-21T22:28:57.288Z,102621.03
2024-04-21T22:31:20.294Z,102626.81
2024-04-21T22:33:42.291Z,102634.19
2024-04-21T22:36:06.262Z,102631.44
2024-04-21T22:38:28.258Z,102630.06
2024-04-21T22:41:03.801Z,102635.56
2024-04-21T22:43:25.760Z,102626.25
2024-04-21T22:45:47.598Z,102630.38
2024-04-21T22:48:09.539Z,102635.00
2024-04-21T22:50:31.451Z,102635.28
2024-04-21T22:52:53.224Z,102627.06
2024-04-21T22:55:15.158Z,102636.66
2024-04-21T22:57:37.100Z,102630.38
2024-04-21T22:59:58.902Z,102633.09
2024-04-21T23:02:20.801Z,102627.63
2024-04-21T23:04:43.130Z,102630.38
2024-04-21T23:07:05.157Z,102632.53
2024-04-21T23:09:27.123Z,102628.44
2024-04-21T23:11:49.120Z,102622.66
2024-04-21T23:14:11.112Z,102630.06
2024-04-21T23:16:32.935Z,102623.50
2024-04-21T23:18:54.936Z,102624.88
2024-04-21T23:21:16.861Z,102621.56
2024-04-21T23:23:38.707Z,102610.84
2024-04-21T23:26:00.550Z,102613.59
2024-04-21T23:28:22.430Z,102607.28
2024-04-21T23:30:46.809Z,102616.34
2024-04-21T23:33:08.660Z,102612.47
2024-04-21T23:35:30.508Z,102611.09
2024-04-21T23:37:52.297Z,102617.44
2024-04-21T23:40:14.110Z,102610.53
2024-04-21T23:42:36.323Z,102612.47
2024-04-21T23:44:58.086Z,102601.78
2024-04-21T23:47:22.614Z,102595.44
2024-04-21T23:49:44.609Z,102596.81
2024-04-21T23:52:07.170Z,102598.47
2024-04-21T23:54:29.104Z,102603.38
2024-04-21T23:56:50.918Z,102597.34
2024-04-21T23:59:12.728Z,102591.28
